Garden City South, New York
Current Conditions -  °F | °C
As of 5:51 PM on Friday 28 Nov 2014 (Local Time) from KJFK Reporting Station
Scattered Clouds Scattered Clouds  
Wind Chill: 24°   Ceiling: Unl
Heat Index: 32°   Visibility: 10mi
Dew Point: 12°   Wind: 9mph
Humidity: 44%   Direction: 310°NW
Pressure: 30.25"   Gusts: NA
Location:  40.727°N, 73.6328°W
Report Text: KJFK 282251Z 31008KT 10SM FEW048 SCT250 00/M11 A3025 RMK AO2 SLP242 T00001111
Loading
Personal Weather Stations






























Interactive Weather Map New forecast layout! Learn more

10-Day Weather Forecast

Advertisements
Track Severe Weather on mobile